Latest Weather Observations for Dennes Point

IDT60901

Issued at 10:11 pm EST Monday 26 September 2016 (issued every 10 minutes, with the page automatically refreshed every 10 minutes)

About weather observations | Map of Hobart area stations | Latest observations for Hobart area | Other Formats
Station Details ID: 094255 Name: DENNES POINT Lat: -43.06 Lon: 147.36 Height: 5.67 m
Data from the previous 72 hours. | See also: Recent months at Dennes Point
Date/Time
EST
Temp
°C
App
Temp
°C
Dew
Point
°C
Rel
Hum
%
Delta-T
°C
Wind Press
QNH
hPa
Press
MSL
hPa
Rain since
9am
mm
Dir  Spd
km/h
Gust
km/h
Spd
kts
Gust
kts
26/10:00pm 10.6 7.4 6.7 77 1.8 W 13 17 7 9 1009.1 1009.1 0.0
26/09:30pm 11.4 8.0 7.5 77 1.9 N 15 19 8 10 1009.2 1009.2 0.0
26/09:00pm 11.5 7.2 7.2 75 2.1 NNE 19 22 10 12 1009.2 1009.2 0.0
26/08:30pm 11.9 8.5 7.6 75 2.1 NE 15 20 8 11 1009.0 1009.0 0.0
26/08:00pm 11.7 8.2 7.4 75 2.1 ENE 15 17 8 9 1009.0 1009.0 0.0
26/07:30pm 11.6 8.1 7.1 74 2.2 ENE 15 17 8 9 1008.9 1008.9 0.0
26/07:00pm 11.8 7.6 7.3 74 2.2 ENE 19 24 10 13 1008.7 1008.7 0.0
26/06:30pm 12.1 7.7 7.4 73 2.3 ENE 20 22 11 12 1008.5 1008.5 0.0
26/06:00pm 12.2 7.8 7.3 72 2.4 ENE 20 24 11 13 1008.4 1008.4 0.0
26/05:30pm 12.5 8.2 7.0 69 2.6 ENE 19 22 10 12 1008.2 1008.2 0.0
26/05:00pm 12.6 8.3 6.9 68 2.7 NE 19 22 10 12 1008.0 1008.0 0.0
26/04:30pm 13.4 9.9 7.4 67 2.9 E 15 20 8 11 1007.7 1007.7 0.0
26/04:00pm 12.4 9.1 6.2 66 2.9 ESE 13 17 7 9 1007.7 1007.7 0.0
26/03:30pm 12.4 8.3 6.0 65 3.0 ESE 17 20 9 11 1007.7 1007.7 0.0
26/03:00pm 13.1 8.7 6.5 64 3.2 ENE 19 22 10 12 1007.7 1007.7 0.0
26/02:30pm 13.7 9.1 6.3 61 3.5 ENE 20 26 11 14 1007.8 1007.8 0.0
26/02:00pm 14.1 10.4 6.5 60 3.7 E 15 19 8 10 1008.0 1008.0 0.0
26/01:30pm 13.5 10.2 6.4 62 3.4 ESE 13 17 7 9 1008.3 1008.3 0.0
26/01:00pm 13.0 9.5 5.4 60 3.6 ESE 13 17 7 9 1008.6 1008.6 0.0
26/12:30pm 12.8 9.4 5.9 63 3.2 ESE 13 17 7 9 1008.9 1008.9 0.0
26/12:00pm 12.5 10.1 4.5 58 3.7 ENE 6 7 3 4 1009.3 1009.3 0.0
26/11:30am 12.3 9.8 5.0 61 3.4 E 7 9 4 5 1009.7 1009.7 0.0
26/11:00am 12.0 10.1 4.7 61 3.3 ENE 4 6 2 3 1010.0 1010.0 0.0
26/10:30am 11.8 9.6 5.4 65 3.0 ENE 6 7 3 4 1010.3 1010.3 0.0
26/10:00am 10.9 8.4 4.8 66 2.8 NNE 7 9 4 5 1010.6 1010.6 0.0
26/09:30am 10.4 7.9 5.0 69 2.4 N 7 9 4 5 1010.7 1010.7 0.0
26/09:00am 9.8 7.3 4.8 71 2.2 N 7 9 4 5 1010.8 1010.8 0.0
26/08:30am 10.0 7.6 5.2 72 2.2 NNE 7 9 4 5 1010.9 1010.9 0.0
26/08:00am 9.5 8.4 5.3 75 1.9 CALM 0 0 0 0 1011.0 1011.0 0.0
26/07:30am 8.5 7.3 4.7 77 1.7 CALM 0 0 0 0 1011.0 1011.0 0.0
26/07:00am 8.3 7.1 4.5 77 1.7 CALM 0 0 0 0 1011.0 1011.0 0.0
26/06:30am 7.2 5.4 3.4 77 1.6 W 2 6 1 3 1011.0 1011.0 0.0
26/06:00am 6.9 5.1 3.2 77 1.6 SSW 2 4 1 2 1010.9 1010.9 0.0
26/05:30am 6.9 4.3 3.2 77 1.6 SSW 6 9 3 5 1010.7 1010.7 0.0
26/05:00am 8.6 6.2 4.2 74 1.9 NNW 6 7 3 4 1010.4 1010.4 0.0
26/04:30am 8.9 6.5 4.3 73 2.0 N 6 7 3 4 1010.3 1010.3 0.0
26/04:00am 8.3 6.8 3.0 69 2.2 CALM 0 0 0 0 1010.3 1010.3 0.0
26/03:30am 8.1 6.2 3.0 70 2.2 WSW 2 4 1 2 1010.2 1010.2 0.0
26/03:00am 8.2 5.5 2.9 69 2.2 WNW 6 9 3 5 1010.1 1010.1 0.0
26/02:30am 9.2 5.3 3.2 66 2.6 WNW 13 17 7 9 1010.1 1010.1 0.0
26/02:00am 9.7 6.3 3.9 67 2.5 NNW 11 15 6 8 1010.2 1010.2 0.0
26/01:30am 8.4 5.6 3.3 70 2.2 WSW 7 15 4 8 1010.3 1010.3 0.0
26/01:00am 8.7 6.5 3.3 69 2.3 NNW 4 9 2 5 1010.5 1010.5 0.0
26/12:30am 7.9 6.1 3.2 72 2.0 WSW 2 4 1 2 1010.4 1010.4 0.0
26/12:00am 7.7 5.1 3.2 73 1.9 S 6 7 3 4 1010.4 1010.4 0.0
 
Date/Time
EST
Temp
°C
App
Temp
°C
Dew
Point
°C
Rel
Hum
%
Delta-T
°C
Wind Press
QNH
hPa
Press
MSL
hPa
Rain since
9am
mm
Dir  Spd
km/h
Gust
km/h
Spd
kts
Gust
kts
25/11:30pm 8.1 5.3 2.1 66 2.5 SW 6 9 3 5 1010.4 1010.4 0.0
25/11:00pm 8.7 5.7 2.3 64 2.7 WNW 7 11 4 6 1010.3 1010.3 0.0
25/10:30pm 9.8 7.0 3.1 63 2.9 NW 7 13 4 7 1010.4 1010.4 0.0
25/10:00pm 8.5 5.5 1.9 63 2.7 W 7 13 4 7 1010.1 1010.1 0.0
25/09:30pm 9.6 6.0 2.7 62 2.9 WNW 11 15 6 8 1010.1 1010.1 0.0
25/09:00pm 9.9 5.8 2.0 58 3.3 WNW 13 19 7 10 1009.8 1009.8 0.0
25/08:30pm 10.4 5.2 2.5 58 3.4 W 19 28 10 15 1009.6 1009.6 0.0
25/08:00pm 10.2 4.8 2.3 58 3.4 WSW 20 26 11 14 1009.3 1009.3 0.0
25/07:30pm 10.4 5.5 2.0 56 3.5 SW 17 22 9 12 1009.0 1009.0 0.0
25/07:00pm 10.6 5.8 2.7 58 3.4 WSW 17 24 9 13 1008.3 1008.3 0.0
25/06:30pm 10.9 5.5 2.5 56 3.6 WSW 20 24 11 13 1007.8 1007.8 0.0
25/06:00pm 11.6 5.3 1.8 51 4.2 WSW 24 32 13 17 1007.2 1007.2 0.0
25/05:30pm 12.4 5.6 3.1 53 4.1 WSW 28 39 15 21 1006.6 1006.6 0.0
25/05:00pm 13.1 7.9 3.5 52 4.3 WSW 20 28 11 15 1006.3 1006.3 0.0
25/04:30pm 13.2 6.3 2.4 48 4.7 WSW 28 39 15 21 1006.0 1006.0 0.0
25/04:00pm 13.7 7.9 4.6 54 4.2 WSW 24 37 13 20 1005.7 1005.7 0.0
25/03:30pm 13.8 7.0 3.0 48 4.8 WSW 28 37 15 20 1005.5 1005.5 0.0
25/03:00pm 14.5 7.5 3.9 49 4.9 WSW 30 44 16 24 1005.1 1005.1 0.0
25/02:30pm 14.7 7.6 3.5 47 5.1 WSW 30 44 16 24 1004.8 1004.8 0.0
25/02:00pm 14.5 7.0 3.3 47 5.1 WSW 32 41 17 22 1004.7 1004.7 0.0
25/01:30pm 15.2 9.5 5.1 51 4.8 W 24 30 13 16 1004.4 1004.4 0.0
25/01:00pm 14.4 7.3 3.8 49 4.9 W 30 41 16 22 1004.5 1004.5 0.0
25/12:55pm 14.5 8.7 4.5 51 4.6 WSW 24 41 13 22 1004.4 1004.4 0.0
25/12:30pm 13.7 9.5 4.0 52 4.4 WSW 15 22 8 12 1004.6 1004.6 0.0
25/12:00pm 12.5 5.6 4.5 58 3.7 WSW 30 37 16 20 1004.6 1004.6 0.0
25/11:30am 14.4 8.2 6.3 58 3.9 WSW 28 39 15 21 1004.2 1004.2 0.0
25/11:00am 13.9 8.0 6.0 59 3.8 WSW 26 33 14 18 1004.1 1004.1 0.0
25/10:30am 13.2 7.2 5.1 58 3.8 W 26 37 14 20 1003.9 1003.9 0.0
25/10:00am 13.0 8.9 6.4 64 3.2 WSW 17 24 9 13 1003.9 1003.9 0.0
25/09:30am 12.3 7.5 5.7 64 3.1 SW 20 26 11 14 1003.6 1003.6 0.0
25/09:00am 12.3 6.3 5.5 63 3.2 WSW 26 35 14 19 1003.0 1003.0 0.0
25/08:30am 12.4 6.8 5.6 63 3.2 WSW 24 35 13 19 1002.7 1002.7 0.0
25/08:00am 12.2 5.5 5.8 65 3.0 SW 30 41 16 22 1002.2 1002.2 0.0
25/07:30am 12.2 6.5 6.7 69 2.6 WSW 26 37 14 20 1001.5 1001.6 0.0
25/07:00am 12.4 4.8 7.5 72 2.4 W 37 48 20 26 1000.9 1001.0 0.0
25/06:47am 12.5 7.1 7.8 73 2.3 WSW 26 44 14 24 1000.9 1001.0 0.0
25/06:30am 12.7 11.0 8.4 75 2.1 ENE 7 11 4 6 1000.3 1000.3 0.0
25/06:00am 12.4 11.2 8.1 75 2.1 NE 4 4 2 2 999.7 999.7 0.0
25/05:30am 12.6 10.5 8.3 75 2.1 NNE 9 13 5 7 999.4 999.4 0.0
25/05:00am 12.8 11.0 8.1 73 2.3 NNE 7 11 4 6 999.4 999.4 0.0
25/04:30am 12.4 10.3 8.1 75 2.1 NE 9 13 5 7 999.3 999.3 0.0
25/04:00am 12.4 10.0 8.5 77 1.9 E 11 13 6 7 999.6 999.6 0.0
25/03:30am 12.8 9.6 8.5 75 2.1 NE 15 20 8 11 999.7 999.7 0.0
25/03:00am 12.9 9.5 9.0 77 2.0 NNE 17 19 9 10 1000.1 1000.1 0.0
25/02:30am 12.9 9.4 8.6 75 2.1 NE 17 20 9 11 1000.6 1000.7 0.0
25/02:00am 13.3 10.2 8.8 74 2.3 NE 15 19 8 10 1000.8 1000.9 0.0
25/01:30am 13.4 9.6 9.1 75 2.2 NNE 19 24 10 13 1001.3 1001.4 0.0
25/01:00am 13.6 9.9 9.5 76 2.1 NNE 19 24 10 13 1001.2 1001.3 0.0
25/12:30am 13.7 9.5 9.7 77 2.1 NE 22 26 12 14 1001.6 1001.7 0.0
25/12:00am 13.6 10.4 10.0 79 1.9 NE 17 24 9 13 1001.8 1001.9 0.0
 
Date/Time
EST
Temp
°C
App
Temp
°C
Dew
Point
°C
Rel
Hum
%
Delta-T
°C
Wind Press
QNH
hPa
Press
MSL
hPa
Rain since
9am
mm
Dir  Spd
km/h
Gust
km/h
Spd
kts
Gust
kts
24/11:30pm 13.7 11.7 10.3 80 1.8 ENE 11 19 6 10 1002.3 1002.3 0.0
24/11:00pm 13.9 12.8 10.7 81 1.7 E 7 13 4 7 1002.5 1002.5 0.0
24/10:30pm 13.6 12.3 11.1 85 1.3 ESE 9 17 5 9 1002.8 1002.8 0.0
24/10:00pm 13.6 12.4 11.5 87 1.1 ESE 9 15 5 8 1003.3 1003.3 0.0
24/09:30pm 13.5 11.9 11.7 89 1.0 ENE 11 13 6 7 1003.6 1003.6 0.0
24/09:00pm 13.7 12.6 11.8 88 1.0 E 9 15 5 8 1003.9 1003.9 0.0
24/08:30pm 13.8 11.5 11.8 88 1.1 NE 15 20 8 11 1004.1 1004.1 0.0
24/08:00pm 13.9 11.6 11.8 87 1.1 NE 15 20 8 11 1004.4 1004.4 0.0
24/07:30pm 14.1 10.5 11.8 86 1.2 NNE 22 28 12 15 1004.4 1004.4 0.0
24/07:00pm 14.2 9.8 11.7 85 1.3 NNE 26 32 14 17 1004.4 1004.4 0.0
24/06:30pm 14.2 11.4 11.5 84 1.4 NNE 17 22 9 12 1004.3 1004.3 0.0
24/06:00pm 14.4 11.3 11.6 83 1.5 NNE 19 26 10 14 1004.3 1004.3 0.0
24/05:30pm 14.7 12.7 11.5 81 1.7 NNE 13 20 7 11 1004.5 1004.5 0.0
24/05:00pm 14.6 10.5 11.4 81 1.7 E 24 30 13 16 1004.5 1004.5 0.0
24/04:30pm 15.1 10.2 11.3 78 2.0 NE 28 37 15 20 1004.4 1004.4 0.0
24/04:00pm 15.5 10.7 11.7 78 2.1 NE 28 33 15 18 1004.6 1004.6 0.0
24/03:30pm 15.2 10.5 12.0 81 1.7 ENE 28 33 15 18 1004.7 1004.7 0.0
24/03:00pm 14.6 9.0 11.4 81 1.7 E 32 37 17 20 1005.0 1005.0 0.0
24/02:30pm 14.7 8.0 11.1 79 1.9 ENE 37 43 20 23 1005.3 1005.3 0.0
24/02:00pm 15.1 10.1 11.1 77 2.1 ENE 28 32 15 17 1005.5 1005.5 0.0
24/01:30pm 16.3 14.8 10.6 69 3.0 E 9 15 5 8 1006.1 1006.1 0.0
24/01:00pm 15.7 13.4 10.5 71 2.8 E 13 15 7 8 1006.7 1006.7 0.0
24/12:30pm 16.2 15.0 9.6 65 3.4 ENE 6 7 3 4 1007.3 1007.3 0.0
24/12:00pm 15.2 13.3 9.1 67 3.1 NE 9 11 5 6 1007.7 1007.7 0.0
24/11:30am 15.4 14.4 8.9 65 3.3 ENE 4 6 2 3 1008.0 1008.0 0.0
24/11:00am 15.8 14.5 11.2 74 2.5 NNE 9 13 5 7 1008.6 1008.6 0.0
24/10:30am 13.9 10.3 9.9 77 2.1 NNE 19 22 10 12 1008.9 1008.9 0.0
24/10:00am 13.6 9.8 9.8 78 2.0 NNE 20 22 11 12 1009.4 1009.4 0.0
24/09:30am 13.3 10.7 9.5 78 1.9 NNE 13 17 7 9 1010.0 1010.0 0.0
24/09:00am 12.9 10.7 9.5 80 1.7 NE 11 13 6 7 1010.4 1010.4 0.0
24/08:30am 12.3 8.6 9.5 83 1.4 NNE 19 22 10 12 1010.4 1010.4 0.0
24/08:00am 11.7 9.1 9.3 85 1.2 NNE 13 17 7 9 1010.7 1010.7 0.0
24/07:30am 11.3 8.2 8.9 85 1.2 NNE 15 17 8 9 1010.9 1010.9 0.0
24/07:00am 11.3 9.0 8.9 85 1.2 NNE 11 15 6 8 1011.1 1011.1 0.0
24/06:30am 11.0 7.5 8.9 87 1.0 NNE 17 20 9 11 1011.2 1011.2 0.0
24/06:00am 10.8 7.7 8.9 88 0.9 NE 15 17 8 9 1011.0 1011.0 0.0
24/05:30am 10.8 8.1 8.9 88 0.9 NNE 13 15 7 8 1011.0 1011.0 0.0
24/05:00am 10.5 9.5 8.8 89 0.8 NNE 4 11 2 6 1011.1 1011.1 0.0
24/04:30am 10.0 9.2 8.1 88 0.9 N 2 6 1 3 1011.3 1011.3 0.0
24/04:00am 10.1 9.7 8.2 88 0.9 CALM 0 2 0 1 1011.4 1011.4 0.0
24/03:30am 10.0 8.4 7.9 87 1.0 SSW 6 7 3 4 1011.7 1011.7 0.0
24/03:00am 11.3 9.0 9.0 86 1.1 NNE 11 13 6 7 1012.0 1012.0 0.0
24/02:30am 11.6 9.4 9.3 86 1.2 NNE 11 13 6 7 1012.2 1012.2 0.0
24/02:00am 11.5 9.3 9.2 86 1.2 NE 11 15 6 8 1012.4 1012.4 0.0
24/01:30am 11.5 9.3 9.2 86 1.2 NE 11 13 6 7 1012.7 1012.7 0.0
24/01:00am 11.6 9.0 9.3 86 1.2 NE 13 15 7 8 1012.8 1012.8 0.0
24/12:30am 11.7 9.5 9.4 86 1.2 ENE 11 15 6 8 1013.0 1013.0 0.0
24/12:00am 11.9 9.3 9.5 85 1.2 ENE 13 15 7 8 1013.3 1013.3 0.0
 
Date/Time
EST
Temp
°C
App
Temp
°C
Dew
Point
°C
Rel
Hum
%
Delta-T
°C
Wind Press
QNH
hPa
Press
MSL
hPa
Rain since
9am
mm
Dir  Spd
km/h
Gust
km/h
Spd
kts
Gust
kts
23/11:30pm 11.9 9.3 9.3 84 1.3 NE 13 15 7 8 1013.6 1013.6 0.0
23/11:00pm 12.1 8.8 9.5 84 1.3 NE 17 19 9 10 1013.7 1013.7 0.0
23/10:30pm 12.0 9.8 9.4 84 1.3 ENE 11 15 6 8 1014.1 1014.1 0.0

Latest Capital City Observations: Canberra | Sydney | Melbourne | Brisbane | Adelaide | Perth | Hobart | Darwin

Other Formats:

Comma delimited format used in spreadsheet applications
http://www.bom.gov.au/fwo/IDT60901/IDT60901.94988.axf

JavaScript Object Notation format (JSON) in row-major order
http://www.bom.gov.au/fwo/IDT60901/IDT60901.94988.json